createdAt,value
2019-03-20T00:01:12.054Z,21.22
2019-03-20T00:02:15.125Z,21.23
2019-03-20T00:03:17.436Z,21.24
2019-03-20T00:04:21.364Z,21.22
2019-03-20T00:05:23.336Z,21.25
2019-03-20T00:06:25.599Z,21.25
2019-03-20T00:07:27.548Z,21.27
2019-03-20T00:08:29.642Z,21.29
2019-03-20T00:09:31.437Z,21.33
2019-03-20T00:10:34.025Z,21.34
2019-03-20T00:11:36.265Z,21.38
2019-03-20T00:12:38.252Z,21.36
2019-03-20T00:13:40.483Z,21.33
2019-03-20T00:14:42.538Z,21.36
2019-03-20T00:15:44.653Z,21.38
2019-03-20T00:16:46.985Z,21.40
2019-03-20T00:17:49.403Z,21.41
2019-03-20T00:18:51.735Z,21.43
2019-03-20T00:19:54.914Z,21.42
2019-03-20T00:20:57.097Z,21.44
2019-03-20T00:21:59.137Z,21.46
2019-03-20T00:23:01.510Z,21.50
2019-03-20T00:24:03.827Z,21.50
2019-03-20T00:25:07.991Z,21.52
2019-03-20T00:26:10.159Z,21.52
2019-03-20T00:27:12.261Z,21.54
2019-03-20T00:28:14.209Z,21.54
2019-03-20T00:29:16.401Z,21.56
2019-03-20T00:30:19.410Z,21.57
2019-03-20T00:31:21.424Z,21.59
2019-03-20T00:32:23.743Z,21.59
2019-03-20T00:33:25.495Z,21.59
2019-03-20T00:34:27.528Z,21.62
2019-03-20T00:35:29.588Z,21.61
2019-03-20T00:36:32.528Z,21.63
2019-03-20T00:37:34.936Z,21.63
2019-03-20T00:38:37.332Z,21.63
2019-03-20T00:39:39.474Z,21.63
2019-03-20T00:40:41.808Z,21.59
2019-03-20T00:41:43.964Z,21.56
2019-03-20T00:42:46.301Z,21.50
2019-03-20T00:43:48.381Z,21.46
2019-03-20T00:44:50.497Z,21.42
2019-03-20T00:45:52.610Z,21.39
2019-03-20T00:46:54.567Z,21.39
2019-03-20T00:47:56.709Z,21.38
2019-03-20T00:48:58.660Z,21.40
2019-03-20T00:50:00.630Z,21.42
2019-03-20T00:51:03.190Z,21.39
2019-03-20T00:52:04.946Z,21.41
2019-03-20T00:53:06.927Z,21.39
2019-03-20T00:54:08.725Z,21.36
2019-03-20T00:55:15.191Z,21.33
2019-03-20T00:56:17.319Z,21.26
2019-03-20T00:57:19.568Z,21.18
2019-03-20T00:58:22.691Z,21.19
2019-03-20T00:59:24.880Z,21.19
2019-03-20T01:00:27.334Z,21.14
2019-03-20T01:01:29.022Z,21.17
2019-03-20T01:02:31.020Z,21.20
2019-03-20T01:03:33.103Z,21.18
2019-03-20T01:04:35.257Z,21.22
2019-03-20T01:05:38.047Z,21.23
2019-03-20T01:06:39.999Z,21.22
2019-03-20T01:07:43.119Z,21.26
2019-03-20T01:08:45.088Z,21.29
2019-03-20T01:09:47.069Z,21.32
2019-03-20T01:10:49.271Z,21.35
2019-03-20T01:11:51.443Z,21.36
2019-03-20T01:12:53.695Z,21.36
2019-03-20T01:13:55.692Z,21.40
2019-03-20T01:14:57.685Z,21.41
2019-03-20T01:15:59.720Z,21.45
2019-03-20T01:17:01.815Z,21.47
2019-03-20T01:18:04.148Z,21.49
2019-03-20T01:19:06.219Z,21.50
2019-03-20T01:20:18.529Z,21.50
2019-03-20T01:21:21.634Z,21.52
2019-03-20T01:22:23.639Z,21.53
2019-03-20T01:23:26.818Z,21.53
2019-03-20T01:24:28.866Z,21.53
2019-03-20T01:25:31.070Z,21.56
2019-03-20T01:26:33.460Z,21.53
2019-03-20T01:27:35.623Z,21.53
2019-03-20T01:28:37.616Z,21.49
2019-03-20T01:29:39.577Z,21.49
2019-03-20T01:30:41.474Z,21.46
2019-03-20T01:31:43.554Z,21.49
2019-03-20T01:32:45.714Z,21.42
2019-03-20T01:33:51.394Z,21.44
2019-03-20T01:34:53.829Z,21.44
2019-03-20T01:35:56.013Z,21.42
2019-03-20T01:36:58.762Z,21.38
2019-03-20T01:38:01.079Z,21.43
2019-03-20T01:39:05.067Z,21.41
2019-03-20T01:40:07.021Z,21.44
2019-03-20T01:41:09.088Z,21.45
2019-03-20T01:42:11.218Z,21.47
2019-03-20T01:43:13.309Z,21.47
2019-03-20T01:44:15.311Z,21.51
2019-03-20T01:45:17.430Z,21.50
2019-03-20T01:46:19.463Z,21.52
2019-03-20T01:47:21.580Z,21.54
2019-03-20T01:48:23.346Z,21.55
2019-03-20T01:49:25.288Z,21.56
2019-03-20T01:50:27.581Z,21.57
2019-03-20T01:51:29.756Z,21.59
2019-03-20T01:52:31.863Z,21.59
2019-03-20T01:53:33.995Z,21.60
2019-03-20T01:54:35.693Z,21.62
2019-03-20T01:55:37.869Z,21.60
2019-03-20T01:56:39.815Z,21.62
2019-03-20T01:57:41.816Z,21.63
2019-03-20T01:58:43.772Z,21.64
2019-03-20T01:59:45.761Z,21.63
2019-03-20T02:00:47.827Z,21.63
2019-03-20T02:01:49.944Z,21.64
2019-03-20T02:02:52.019Z,21.65
2019-03-20T02:03:53.896Z,21.62
2019-03-20T02:04:55.990Z,21.64
2019-03-20T02:05:58.292Z,21.62
2019-03-20T02:07:00.090Z,21.64
2019-03-20T02:08:02.230Z,21.64
2019-03-20T02:09:05.557Z,21.65
2019-03-20T02:10:12.020Z,21.62
2019-03-20T02:11:14.166Z,21.62
2019-03-20T02:12:16.168Z,21.64
2019-03-20T02:13:18.026Z,21.62
2019-03-20T02:14:20.726Z,21.64
2019-03-20T02:15:22.656Z,21.66
2019-03-20T02:16:24.876Z,21.67
2019-03-20T02:17:27.104Z,21.68
2019-03-20T02:18:28.866Z,21.68
2019-03-20T02:19:30.520Z,21.69
2019-03-20T02:20:32.590Z,21.66
2019-03-20T02:21:34.730Z,21.69
2019-03-20T02:22:36.396Z,21.69
2019-03-20T02:23:38.465Z,21.70
2019-03-20T02:24:40.154Z,21.68
2019-03-20T02:25:42.270Z,21.65
2019-03-20T02:26:44.395Z,21.66
2019-03-20T02:27:46.416Z,21.67
2019-03-20T02:28:49.678Z,21.67
2019-03-20T02:29:52.126Z,21.68
2019-03-20T02:30:53.794Z,21.70
2019-03-20T02:31:55.916Z,21.72
2019-03-20T02:32:57.894Z,21.71
2019-03-20T02:33:59.584Z,21.70
2019-03-20T02:35:02.023Z,21.71
2019-03-20T02:36:05.307Z,21.69
2019-03-20T02:37:07.232Z,21.73
2019-03-20T02:38:09.191Z,21.74
2019-03-20T02:39:12.144Z,21.75
2019-03-20T02:40:14.852Z,21.74
2019-03-20T02:41:17.082Z,21.70
2019-03-20T02:42:19.277Z,21.72
2019-03-20T02:43:21.202Z,21.73
2019-03-20T02:44:23.403Z,21.77
2019-03-20T02:45:25.389Z,21.78
2019-03-20T02:46:27.332Z,21.78
2019-03-20T02:47:29.519Z,21.78
2019-03-20T02:48:31.186Z,21.80
2019-03-20T02:49:33.378Z,21.78
2019-03-20T02:50:35.524Z,21.77
2019-03-20T02:51:37.814Z,21.76
2019-03-20T02:52:39.781Z,21.77
2019-03-20T02:53:42.351Z,21.79
2019-03-20T02:54:44.202Z,21.79
2019-03-20T02:55:46.242Z,21.81
2019-03-20T02:56:48.268Z,21.81
2019-03-20T02:57:50.287Z,21.81
2019-03-20T02:58:52.403Z,21.82
2019-03-20T02:59:54.780Z,21.84
2019-03-20T03:00:56.916Z,21.82
2019-03-20T03:01:59.072Z,21.81
2019-03-20T03:03:03.084Z,21.81
2019-03-20T03:04:05.023Z,21.83
2019-03-20T03:05:08.621Z,21.82
2019-03-20T03:06:10.780Z,21.84
2019-03-20T03:07:12.647Z,21.86
2019-03-20T03:08:14.645Z,21.85
2019-03-20T03:09:16.418Z,21.86
2019-03-20T03:10:18.645Z,21.86
2019-03-20T03:11:21.916Z,21.88
2019-03-20T03:12:24.117Z,21.90
2019-03-20T03:13:26.230Z,21.85
2019-03-20T03:14:28.352Z,21.82
2019-03-20T03:15:30.491Z,21.84
2019-03-20T03:16:32.762Z,21.84
2019-03-20T03:17:35.917Z,21.82
2019-03-20T03:18:38.096Z,21.81
2019-03-20T03:19:40.031Z,21.83
2019-03-20T03:20:42.184Z,21.83
2019-03-20T03:21:44.181Z,21.82
2019-03-20T03:22:46.159Z,21.81
2019-03-20T03:23:48.286Z,21.84
2019-03-20T03:24:49.963Z,21.85
2019-03-20T03:25:52.062Z,21.84
2019-03-20T03:26:54.123Z,21.86
2019-03-20T03:27:56.106Z,21.85
2019-03-20T03:28:58.288Z,21.88
2019-03-20T03:30:00.622Z,21.88
2019-03-20T03:31:02.656Z,21.87
2019-03-20T03:32:05.131Z,21.86
2019-03-20T03:33:07.209Z,21.88
2019-03-20T03:34:08.906Z,21.87
2019-03-20T03:35:17.058Z,21.86
2019-03-20T03:36:21.184Z,21.85
2019-03-20T03:37:19.675Z,21.85
2019-03-20T03:38:21.661Z,21.86
2019-03-20T03:39:23.379Z,21.86
2019-03-20T03:40:25.442Z,21.86
2019-03-20T03:41:27.460Z,21.88
2019-03-20T03:42:29.435Z,21.90
2019-03-20T03:43:32.490Z,21.88
2019-03-20T03:44:34.741Z,21.89
2019-03-20T03:45:36.637Z,21.91
2019-03-20T03:46:38.633Z,21.88
2019-03-20T03:47:40.893Z,21.88
2019-03-20T03:48:42.903Z,21.88
2019-03-20T03:49:44.614Z,21.89
2019-03-20T03:50:48.389Z,21.89
2019-03-20T03:51:50.520Z,21.88
2019-03-20T03:52:52.567Z,21.90
2019-03-20T03:53:54.844Z,21.92
2019-03-20T03:54:56.649Z,21.89
2019-03-20T03:55:58.781Z,21.91
2019-03-20T03:57:01.095Z,21.92
2019-03-20T03:58:03.103Z,21.92
2019-03-20T03:59:05.953Z,21.92
2019-03-20T04:00:15.071Z,21.91
2019-03-20T04:01:17.370Z,21.88
2019-03-20T04:02:19.599Z,21.93
2019-03-20T04:03:22.124Z,21.87
2019-03-20T04:04:24.992Z,21.84
2019-03-20T04:05:27.162Z,21.86
2019-03-20T04:06:35.436Z,21.85
2019-03-20T04:07:33.204Z,21.84
2019-03-20T04:08:35.284Z,21.84
2019-03-20T04:09:37.673Z,21.84
2019-03-20T04:10:39.641Z,21.84
2019-03-20T04:11:41.707Z,21.84
2019-03-20T04:12:43.987Z,21.84
2019-03-20T04:13:46.250Z,21.85
2019-03-20T04:14:48.227Z,21.85
2019-03-20T04:15:50.015Z,21.85
2019-03-20T04:16:51.997Z,21.84
2019-03-20T04:17:53.984Z,21.86
2019-03-20T04:18:55.753Z,21.86
2019-03-20T04:19:57.801Z,21.84
2019-03-20T04:20:59.909Z,21.86
2019-03-20T04:22:01.803Z,21.86
2019-03-20T04:23:03.757Z,21.86
2019-03-20T04:24:05.651Z,21.84
2019-03-20T04:25:10.667Z,21.85
2019-03-20T04:26:12.789Z,21.80
2019-03-20T04:27:15.043Z,21.79
2019-03-20T04:28:17.021Z,21.78
2019-03-20T04:29:19.264Z,21.73
2019-03-20T04:30:21.277Z,21.66
2019-03-20T04:31:23.515Z,21.63
2019-03-20T04:32:25.552Z,21.54
2019-03-20T04:33:28.310Z,21.50
2019-03-20T04:34:30.039Z,21.39
2019-03-20T04:35:32.182Z,21.39
2019-03-20T04:36:46.860Z,21.38
2019-03-20T04:37:38.928Z,21.37
2019-03-20T04:38:40.910Z,21.39
2019-03-20T04:39:42.575Z,21.38
2019-03-20T04:40:45.785Z,21.39
2019-03-20T04:41:47.987Z,21.41
2019-03-20T04:42:50.003Z,21.41
2019-03-20T04:43:52.135Z,21.43
2019-03-20T04:44:54.227Z,21.50
2019-03-20T04:45:55.891Z,21.50
2019-03-20T04:46:57.907Z,21.52
2019-03-20T04:48:00.001Z,21.53
2019-03-20T04:49:01.685Z,21.54
2019-03-20T04:50:08.334Z,21.57
2019-03-20T04:51:10.522Z,21.60
2019-03-20T04:52:12.295Z,21.61
2019-03-20T04:53:14.271Z,21.62
2019-03-20T04:54:15.911Z,21.64
2019-03-20T04:55:18.181Z,21.62
2019-03-20T04:56:20.192Z,21.63
2019-03-20T04:57:22.359Z,21.65
2019-03-20T04:58:24.608Z,21.66
2019-03-20T04:59:27.737Z,21.63
2019-03-20T05:00:29.726Z,21.61
2019-03-20T05:01:32.051Z,21.63
2019-03-20T05:02:34.240Z,21.64
2019-03-20T05:03:36.444Z,21.67
2019-03-20T05:04:38.443Z,21.79
2019-03-20T05:05:40.508Z,21.77
2019-03-20T05:06:42.480Z,21.66
2019-03-20T05:07:44.554Z,21.55
2019-03-20T05:08:46.768Z,21.41
2019-03-20T05:09:48.472Z,21.27
2019-03-20T05:10:50.584Z,21.14
2019-03-20T05:11:52.610Z,21.00
2019-03-20T05:12:54.300Z,20.86
2019-03-20T05:13:56.390Z,20.73
2019-03-20T05:14:58.524Z,20.60
2019-03-20T05:16:00.218Z,20.47
2019-03-20T05:17:02.473Z,20.35
2019-03-20T05:18:05.757Z,20.24
2019-03-20T05:19:08.054Z,20.12
2019-03-20T05:20:16.137Z,20.01
2019-03-20T05:21:18.137Z,19.90
2019-03-20T05:22:20.172Z,19.80
2019-03-20T05:23:22.293Z,19.72
2019-03-20T05:24:24.373Z,19.62
2019-03-20T05:25:26.335Z,19.55
2019-03-20T05:26:28.323Z,19.48
2019-03-20T05:27:30.373Z,19.44
2019-03-20T05:28:32.497Z,19.38
2019-03-20T05:29:34.647Z,19.31
2019-03-20T05:30:36.331Z,19.26
2019-03-20T05:31:38.681Z,19.21
2019-03-20T05:32:40.955Z,19.15
2019-03-20T05:33:42.947Z,19.10
2019-03-20T05:34:45.029Z,19.06
2019-03-20T05:35:47.135Z,19.01
2019-03-20T05:36:49.120Z,18.96
2019-03-20T05:37:51.220Z,18.93
2019-03-20T05:38:53.538Z,18.88
2019-03-20T05:39:55.200Z,18.83
2019-03-20T05:40:56.948Z,18.80
2019-03-20T05:41:59.129Z,18.75
2019-03-20T05:43:01.142Z,18.73
2019-03-20T05:44:03.439Z,18.69
2019-03-20T05:45:11.914Z,18.66
2019-03-20T05:46:13.600Z,18.63
2019-03-20T05:47:15.822Z,18.61
2019-03-20T05:48:17.872Z,18.57
2019-03-20T05:49:19.857Z,18.54
2019-03-20T05:50:24.071Z,18.51
2019-03-20T05:51:26.142Z,18.47
2019-03-20T05:52:28.320Z,18.43
2019-03-20T05:53:30.341Z,18.41
2019-03-20T05:54:32.220Z,18.36
2019-03-20T05:55:34.329Z,18.33
2019-03-20T05:56:36.274Z,18.29
2019-03-20T05:57:39.893Z,18.27
2019-03-20T05:58:41.902Z,18.23
2019-03-20T05:59:43.929Z,18.21
2019-03-20T06:00:46.072Z,18.19
2019-03-20T06:01:48.206Z,18.15
2019-03-20T06:02:50.364Z,18.11
2019-03-20T06:03:52.037Z,18.10
2019-03-20T06:04:54.128Z,18.07
2019-03-20T06:05:56.375Z,18.05
2019-03-20T06:06:58.106Z,18.02
2019-03-20T06:08:00.357Z,17.98
2019-03-20T06:09:05.801Z,17.95
2019-03-20T06:10:14.454Z,17.97
2019-03-20T06:11:16.596Z,17.97
2019-03-20T06:12:18.675Z,17.98
2019-03-20T06:13:22.992Z,17.98
2019-03-20T06:14:25.160Z,17.98
2019-03-20T06:15:27.332Z,17.98
2019-03-20T06:16:29.298Z,17.94
2019-03-20T06:17:31.417Z,17.92
2019-03-20T06:18:33.939Z,17.90
2019-03-20T06:19:38.227Z,17.86
2019-03-20T06:20:41.515Z,17.86
2019-03-20T06:21:43.185Z,17.91
2019-03-20T06:22:45.450Z,17.90
2019-03-20T06:23:47.545Z,17.95
2019-03-20T06:24:49.251Z,18.00
2019-03-20T06:25:51.712Z,17.99
2019-03-20T06:26:54.206Z,17.97
2019-03-20T06:27:56.357Z,17.91
2019-03-20T06:28:58.445Z,17.89
2019-03-20T06:30:02.730Z,17.89
2019-03-20T06:31:04.693Z,17.90
2019-03-20T06:32:06.946Z,17.88
2019-03-20T06:33:08.952Z,17.91
2019-03-20T06:34:11.019Z,17.93
2019-03-20T06:35:13.348Z,17.92
2019-03-20T06:36:16.457Z,17.91
2019-03-20T06:37:18.569Z,17.89
2019-03-20T06:38:20.672Z,17.89
2019-03-20T06:39:22.847Z,17.88
2019-03-20T06:40:24.552Z,17.87
2019-03-20T06:41:27.030Z,17.86
2019-03-20T06:42:29.030Z,17.88
2019-03-20T06:43:31.072Z,17.87
2019-03-20T06:44:33.170Z,17.86
2019-03-20T06:45:35.010Z,17.87
2019-03-20T06:46:37.144Z,17.86
2019-03-20T06:47:41.339Z,17.85
2019-03-20T06:48:43.212Z,17.88
2019-03-20T06:49:46.412Z,17.86
2019-03-20T06:50:48.472Z,17.84
2019-03-20T06:51:51.602Z,17.83
2019-03-20T06:52:53.679Z,17.83
2019-03-20T06:53:55.830Z,17.81
2019-03-20T06:54:57.934Z,17.81
2019-03-20T06:55:59.977Z,17.82
2019-03-20T06:57:02.716Z,17.81
2019-03-20T06:58:04.931Z,17.85
2019-03-20T06:59:29.648Z,17.84
2019-03-20T07:00:58.528Z,17.86
2019-03-20T07:02:04.829Z,17.84
2019-03-20T07:03:21.381Z,17.82
2019-03-20T07:04:44.317Z,17.78
2019-03-20T07:06:06.627Z,17.80
2019-03-20T07:07:15.385Z,17.79
2019-03-20T07:08:21.327Z,17.79
2019-03-20T07:09:47.121Z,17.77
2019-03-20T07:11:10.553Z,17.76
2019-03-20T07:12:12.547Z,17.78
2019-03-20T07:13:14.200Z,17.80
2019-03-20T07:14:16.197Z,17.78
2019-03-20T07:15:18.513Z,17.77
2019-03-20T07:16:20.673Z,17.80
2019-03-20T07:17:22.929Z,17.78
2019-03-20T07:18:27.625Z,17.80
2019-03-20T07:19:30.075Z,17.79
2019-03-20T07:20:33.825Z,17.82
2019-03-20T07:21:35.880Z,17.83
2019-03-20T07:22:41.646Z,17.84
2019-03-20T07:23:43.646Z,17.84
2019-03-20T07:24:45.564Z,17.85
2019-03-20T07:25:47.845Z,17.86
2019-03-20T07:26:49.839Z,17.84
2019-03-20T07:27:52.555Z,17.87
2019-03-20T07:28:54.545Z,17.89
2019-03-20T07:29:56.486Z,17.92
2019-03-20T07:30:58.244Z,17.93
2019-03-20T07:32:00.258Z,17.99
2019-03-20T07:33:02.402Z,18.01
2019-03-20T07:34:04.768Z,18.05
2019-03-20T07:35:06.942Z,18.08
2019-03-20T07:36:09.410Z,18.09
2019-03-20T07:37:11.406Z,18.11
2019-03-20T07:38:13.600Z,18.12
2019-03-20T07:39:15.608Z,18.13
2019-03-20T07:40:17.366Z,18.12
2019-03-20T07:41:19.392Z,18.12
2019-03-20T07:42:21.842Z,18.13
2019-03-20T07:43:23.974Z,18.13
2019-03-20T07:44:26.177Z,18.10
2019-03-20T07:45:28.068Z,18.18
2019-03-20T07:46:29.981Z,18.18
2019-03-20T07:47:32.028Z,18.18
2019-03-20T07:48:34.167Z,18.19
2019-03-20T07:49:36.310Z,18.17
2019-03-20T07:50:38.271Z,18.19
2019-03-20T07:51:40.269Z,18.20
2019-03-20T07:52:42.473Z,18.20
2019-03-20T07:53:44.674Z,18.22
2019-03-20T07:54:46.737Z,18.26
2019-03-20T07:55:49.091Z,18.30
2019-03-20T07:56:51.315Z,18.31
2019-03-20T07:57:53.594Z,18.27
2019-03-20T07:58:56.755Z,18.31
2019-03-20T07:59:58.879Z,18.34
2019-03-20T08:01:00.798Z,18.36
2019-03-20T08:02:03.363Z,18.32
2019-03-20T08:03:05.667Z,18.31
2019-03-20T08:04:07.899Z,18.28
2019-03-20T08:05:10.065Z,18.45
2019-03-20T08:06:12.023Z,18.49
2019-03-20T08:07:13.992Z,18.46
2019-03-20T08:08:16.227Z,18.42
2019-03-20T08:09:18.541Z,18.44
2019-03-20T08:10:20.578Z,18.42
2019-03-20T08:11:22.697Z,18.46
2019-03-20T08:12:24.494Z,18.40
2019-03-20T08:13:26.693Z,18.43
2019-03-20T08:14:28.811Z,18.50
2019-03-20T08:15:30.764Z,18.49
2019-03-20T08:16:32.813Z,18.47
2019-03-20T08:17:34.907Z,18.48
2019-03-20T08:18:36.564Z,18.49
2019-03-20T08:19:38.528Z,18.49
2019-03-20T08:20:41.624Z,18.49
2019-03-20T08:21:43.647Z,18.58
2019-03-20T08:22:45.871Z,18.54
2019-03-20T08:23:47.856Z,18.57
2019-03-20T08:24:49.897Z,18.50
2019-03-20T08:25:52.235Z,18.52
2019-03-20T08:26:54.348Z,18.48
2019-03-20T08:27:56.397Z,18.54
2019-03-20T08:28:58.567Z,18.55
2019-03-20T08:30:01.054Z,18.57
2019-03-20T08:31:04.334Z,18.56
2019-03-20T08:32:06.166Z,18.61
2019-03-20T08:33:08.482Z,18.60
2019-03-20T08:34:10.188Z,18.55
2019-03-20T08:35:13.394Z,18.51
2019-03-20T08:36:15.765Z,18.51
2019-03-20T08:37:17.752Z,18.54
2019-03-20T08:38:20.107Z,18.51
2019-03-20T08:39:22.161Z,18.62
2019-03-20T08:40:24.095Z,18.56
2019-03-20T08:41:26.114Z,18.51
2019-03-20T08:42:28.759Z,18.58
2019-03-20T08:43:30.964Z,18.55
2019-03-20T08:44:34.059Z,18.61
2019-03-20T08:45:36.043Z,18.59
2019-03-20T08:46:37.869Z,18.67
2019-03-20T08:47:40.099Z,18.67
2019-03-20T08:48:42.053Z,18.63
2019-03-20T08:49:45.820Z,18.61
2019-03-20T08:50:48.080Z,18.62
2019-03-20T08:51:50.231Z,18.64
2019-03-20T08:52:52.622Z,18.62
2019-03-20T08:53:56.287Z,18.59
2019-03-20T08:54:58.229Z,18.63
2019-03-20T08:56:00.178Z,18.66
2019-03-20T08:57:02.561Z,18.72
2019-03-20T08:58:04.823Z,18.65
2019-03-20T08:59:07.175Z,18.66
2019-03-20T09:00:13.538Z,18.63
2019-03-20T09:01:15.302Z,18.60
2019-03-20T09:02:17.391Z,18.72
2019-03-20T09:03:19.343Z,18.64
2019-03-20T09:04:22.123Z,18.57
2019-03-20T09:05:24.252Z,18.58
2019-03-20T09:06:26.224Z,18.52
2019-03-20T09:07:28.823Z,18.49
2019-03-20T09:08:30.872Z,18.44
2019-03-20T09:09:32.847Z,18.40
2019-03-20T09:10:35.114Z,18.44
2019-03-20T09:11:37.176Z,18.53
2019-03-20T09:12:39.183Z,18.56
2019-03-20T09:13:41.411Z,18.59
2019-03-20T09:14:43.446Z,18.59
2019-03-20T09:15:45.602Z,18.59
2019-03-20T09:16:47.975Z,18.61
2019-03-20T09:17:50.468Z,18.62
2019-03-20T09:18:53.304Z,18.66
2019-03-20T09:19:55.448Z,18.61
2019-03-20T09:20:57.676Z,18.72
2019-03-20T09:22:00.510Z,18.69
2019-03-20T09:23:02.862Z,18.74
2019-03-20T09:24:05.328Z,18.73
2019-03-20T09:25:18.520Z,18.72
2019-03-20T09:26:20.702Z,18.56
2019-03-20T09:27:22.908Z,18.80
2019-03-20T09:28:24.857Z,18.76
2019-03-20T09:29:35.727Z,18.85
2019-03-20T09:30:31.333Z,18.80
2019-03-20T09:31:33.581Z,18.76
2019-03-20T09:32:35.891Z,18.79
2019-03-20T09:33:39.469Z,18.83
2019-03-20T09:34:41.708Z,18.82
2019-03-20T09:35:43.769Z,18.87
2019-03-20T09:36:45.528Z,18.89
2019-03-20T09:37:52.358Z,18.98
2019-03-20T09:38:52.769Z,19.06
2019-03-20T09:39:54.763Z,19.14
2019-03-20T09:40:56.943Z,19.21
2019-03-20T09:41:58.929Z,19.27
2019-03-20T09:43:01.245Z,19.33
2019-03-20T09:44:03.796Z,19.32
2019-03-20T09:45:10.204Z,19.31
2019-03-20T09:46:12.484Z,19.27
2019-03-20T09:47:14.711Z,19.19
2019-03-20T09:48:16.928Z,19.23
2019-03-20T09:49:18.987Z,19.20
2019-03-20T09:50:25.793Z,19.18
2019-03-20T09:51:27.943Z,19.19
2019-03-20T09:52:31.059Z,19.23
2019-03-20T09:53:33.102Z,19.30
2019-03-20T09:54:34.813Z,19.21
2019-03-20T09:55:37.917Z,19.30
2019-03-20T09:56:40.138Z,19.28
2019-03-20T09:57:42.663Z,19.15
2019-03-20T09:58:44.842Z,19.17
2019-03-20T09:59:46.789Z,19.23
2019-03-20T10:00:50.493Z,19.37
2019-03-20T10:01:52.528Z,19.40
2019-03-20T10:02:55.049Z,19.51
2019-03-20T10:03:56.778Z,19.57
2019-03-20T10:04:58.886Z,19.70
2019-03-20T10:06:01.222Z,19.75
2019-03-20T10:07:04.916Z,19.86
2019-03-20T10:08:07.154Z,19.96
2019-03-20T10:09:09.175Z,20.05
2019-03-20T10:10:23.030Z,19.92
2019-03-20T10:11:25.294Z,19.96
2019-03-20T10:12:27.376Z,19.93
2019-03-20T10:13:29.490Z,19.94
2019-03-20T10:14:31.526Z,19.99
2019-03-20T10:15:33.802Z,19.92
2019-03-20T10:16:35.941Z,19.79
2019-03-20T10:17:38.144Z,19.67
2019-03-20T10:18:40.167Z,19.60
2019-03-20T10:19:42.675Z,19.62
2019-03-20T10:20:45.280Z,19.61
2019-03-20T10:21:48.406Z,19.52
2019-03-20T10:22:50.939Z,19.45
2019-03-20T10:23:53.315Z,19.43
2019-03-20T10:24:56.032Z,19.35
2019-03-20T10:25:59.621Z,19.40
2019-03-20T10:27:01.602Z,19.40
2019-03-20T10:28:03.931Z,19.45
2019-03-20T10:29:06.129Z,19.47
2019-03-20T10:30:27.665Z,19.41
2019-03-20T10:31:29.391Z,19.40
2019-03-20T10:32:31.674Z,19.39
2019-03-20T10:33:33.861Z,19.49
2019-03-20T10:34:39.641Z,19.50
2019-03-20T10:35:49.866Z,19.47
2019-03-20T10:36:46.073Z,19.47
2019-03-20T10:37:48.651Z,19.50
2019-03-20T10:38:50.587Z,19.52
2019-03-20T10:39:52.711Z,19.52
2019-03-20T10:40:54.746Z,19.55
2019-03-20T10:41:57.018Z,19.52
2019-03-20T10:42:59.175Z,19.52
2019-03-20T10:44:01.316Z,19.61
2019-03-20T10:45:07.730Z,19.60
2019-03-20T10:46:10.561Z,19.63
2019-03-20T10:47:13.200Z,19.72
2019-03-20T10:48:15.374Z,19.67
2019-03-20T10:49:17.192Z,19.70
2019-03-20T10:50:21.577Z,19.63
2019-03-20T10:51:23.684Z,19.80
2019-03-20T10:52:26.014Z,19.81
2019-03-20T10:53:28.219Z,19.99
2019-03-20T10:54:30.367Z,20.01
2019-03-20T10:55:32.460Z,19.94
2019-03-20T10:56:34.536Z,19.83
2019-03-20T10:57:36.408Z,19.66
2019-03-20T10:58:39.551Z,19.64
2019-03-20T10:59:41.642Z,19.59
2019-03-20T11:00:43.646Z,19.54
2019-03-20T11:01:45.736Z,19.57
2019-03-20T11:02:47.907Z,19.55
2019-03-20T11:03:50.332Z,19.60
2019-03-20T11:04:52.458Z,19.67
2019-03-20T11:05:54.459Z,19.68
2019-03-20T11:06:56.568Z,19.71
2019-03-20T11:07:58.856Z,19.70
2019-03-20T11:09:01.202Z,19.66
2019-03-20T11:10:11.582Z,19.59
2019-03-20T11:11:13.988Z,19.54
2019-03-20T11:12:16.380Z,19.48
2019-03-20T11:13:18.479Z,19.47
2019-03-20T11:14:20.763Z,19.44
2019-03-20T11:15:24.835Z,19.48
2019-03-20T11:16:26.884Z,19.36
2019-03-20T11:17:29.123Z,19.30
2019-03-20T11:18:31.047Z,19.33
2019-03-20T11:19:33.222Z,19.40
2019-03-20T11:20:35.405Z,19.44
2019-03-20T11:21:37.753Z,19.47
2019-03-20T11:22:40.198Z,19.47
2019-03-20T11:23:42.562Z,19.45
2019-03-20T11:24:44.812Z,19.39
2019-03-20T11:25:46.949Z,19.47
2019-03-20T11:26:49.207Z,19.52
2019-03-20T11:27:51.436Z,19.53
2019-03-20T11:28:54.817Z,19.54
2019-03-20T11:29:56.920Z,19.53
2019-03-20T11:30:58.831Z,19.56
2019-03-20T11:32:03.102Z,19.59
2019-03-20T11:33:05.076Z,19.62
2019-03-20T11:34:06.856Z,19.65
2019-03-20T11:35:09.334Z,19.58
2019-03-20T11:36:11.499Z,19.63
2019-03-20T11:37:13.796Z,19.62
2019-03-20T11:38:16.098Z,19.65
2019-03-20T11:39:29.005Z,19.70
2019-03-20T11:40:37.332Z,19.75
2019-03-20T11:41:39.471Z,19.80
2019-03-20T11:42:42.036Z,19.79
2019-03-20T11:43:44.142Z,19.80
2019-03-20T11:44:46.200Z,19.73
2019-03-20T11:45:49.145Z,19.68
2019-03-20T11:46:51.614Z,19.79
2019-03-20T11:47:54.797Z,19.78
2019-03-20T11:48:58.738Z,19.78
2019-03-20T11:50:00.885Z,19.70
2019-03-20T11:51:03.116Z,19.74
2019-03-20T11:52:06.395Z,19.69
2019-03-20T11:53:09.217Z,19.69
2019-03-20T11:54:12.583Z,19.73
2019-03-20T11:55:15.130Z,19.76
2019-03-20T11:56:17.681Z,19.62
2019-03-20T11:57:21.709Z,19.67
2019-03-20T11:58:23.868Z,19.75
2019-03-20T11:59:26.212Z,19.63
2019-03-20T12:00:28.473Z,19.71
2019-03-20T12:01:30.534Z,19.67
2019-03-20T12:02:32.974Z,19.69
2019-03-20T12:03:35.265Z,19.80
2019-03-20T12:04:39.076Z,19.93
2019-03-20T12:05:41.273Z,19.80
2019-03-20T12:06:45.806Z,19.80
2019-03-20T12:07:48.177Z,19.87
2019-03-20T12:08:50.847Z,19.99
2019-03-20T12:09:52.746Z,20.05
2019-03-20T12:10:54.853Z,20.14
2019-03-20T12:11:57.217Z,20.24
2019-03-20T12:12:59.389Z,20.42
2019-03-20T12:14:01.646Z,20.44
2019-03-20T12:15:08.313Z,20.27
2019-03-20T12:16:10.118Z,20.42
2019-03-20T12:17:12.254Z,20.32
2019-03-20T12:18:14.590Z,20.39
2019-03-20T12:19:16.556Z,20.50
2019-03-20T12:20:20.627Z,20.47
2019-03-20T12:21:22.703Z,20.49
2019-03-20T12:22:25.047Z,20.40
2019-03-20T12:23:27.217Z,20.25
2019-03-20T12:24:29.367Z,20.15
2019-03-20T12:25:34.339Z,20.06
2019-03-20T12:26:36.609Z,19.98
2019-03-20T12:27:38.255Z,19.96
2019-03-20T12:28:40.752Z,19.84
2019-03-20T12:29:42.990Z,19.78
2019-03-20T12:30:44.731Z,19.82
2019-03-20T12:31:48.566Z,19.72
2019-03-20T12:32:51.295Z,19.63
2019-03-20T12:33:53.577Z,19.67
2019-03-20T12:34:55.686Z,19.60
2019-03-20T12:35:58.162Z,19.64
2019-03-20T12:37:00.392Z,19.70
2019-03-20T12:38:13.783Z,19.70
2019-03-20T12:39:07.758Z,19.72
2019-03-20T12:40:17.887Z,19.73
2019-03-20T12:41:19.958Z,19.74
2019-03-20T12:42:24.132Z,19.72
2019-03-20T12:43:26.260Z,19.78
2019-03-20T12:44:28.271Z,19.77
2019-03-20T12:45:33.464Z,19.75
2019-03-20T12:46:41.483Z,19.77
2019-03-20T12:47:39.666Z,19.73
2019-03-20T12:48:41.784Z,19.84
2019-03-20T12:49:43.938Z,19.80
2019-03-20T12:50:46.068Z,19.86
2019-03-20T12:51:48.264Z,19.68
2019-03-20T12:52:50.356Z,19.67
2019-03-20T12:53:52.460Z,19.78
2019-03-20T12:54:54.897Z,19.97
2019-03-20T12:55:58.168Z,20.11
2019-03-20T12:57:00.498Z,20.02
2019-03-20T12:58:03.051Z,19.94
2019-03-20T12:59:05.195Z,19.90
2019-03-20T13:00:18.093Z,19.92
2019-03-20T13:01:20.020Z,19.91
2019-03-20T13:02:22.275Z,19.93
2019-03-20T13:03:25.640Z,19.93
2019-03-20T13:04:27.609Z,19.92
2019-03-20T13:05:29.832Z,19.95
2019-03-20T13:06:32.021Z,20.00
2019-03-20T13:07:34.143Z,19.96
2019-03-20T13:08:36.633Z,19.82
2019-03-20T13:09:38.559Z,19.61
2019-03-20T13:10:40.654Z,19.50
2019-03-20T13:11:43.676Z,19.36
2019-03-20T13:12:45.561Z,19.24
2019-03-20T13:13:47.811Z,19.31
2019-03-20T13:14:50.134Z,19.41
2019-03-20T13:15:52.173Z,19.56
2019-03-20T13:16:54.261Z,19.63
2019-03-20T13:17:57.786Z,19.58
2019-03-20T13:18:59.597Z,19.48
2019-03-20T13:20:05.066Z,19.50
2019-03-20T13:21:07.387Z,19.50
2019-03-20T13:22:09.333Z,19.48
2019-03-20T13:23:28.010Z,19.57
2019-03-20T13:24:29.941Z,19.51
2019-03-20T13:25:32.489Z,19.45
2019-03-20T13:26:34.907Z,19.52
2019-03-20T13:27:38.161Z,19.44
2019-03-20T13:28:40.063Z,19.48